sensor_id;sensor_type;location;lat;lon;timestamp;temperature;humidity
3312;DHT22;1668;49.648;8.570;2022-07-10T00:00:08;18.90;99.90
3312;DHT22;1668;49.648;8.570;2022-07-10T00:02:36;18.90;99.90
3312;DHT22;1668;49.648;8.570;2022-07-10T00:05:04;18.80;99.90
3312;DHT22;1668;49.648;8.570;2022-07-10T00:07:31;18.80;99.90
3312;DHT22;1668;49.648;8.570;2022-07-10T00:09:58;18.80;99.90
3312;DHT22;1668;49.648;8.570;2022-07-10T00:12:25;18.70;99.90
3312;DHT22;1668;49.648;8.570;2022-07-10T00:14:52;18.70;99.90
3312;DHT22;1668;49.648;8.570;2022-07-10T00:17:19;18.70;99.90
3312;DHT22;1668;49.648;8.570;2022-07-10T00:19:47;18.70;99.90
3312;DHT22;1668;49.648;8.570;2022-07-10T00:22:14;18.50;99.90
3312;DHT22;1668;49.648;8.570;2022-07-10T00:24:41;18.50;99.90
3312;DHT22;1668;49.648;8.570;2022-07-10T00:27:08;18.30;99.90
3312;DHT22;1668;49.648;8.570;2022-07-10T00:29:35;18.20;99.90
3312;DHT22;1668;49.648;8.570;2022-07-10T00:32:03;18.10;99.90
3312;DHT22;1668;49.648;8.570;2022-07-10T00:34:30;18.10;99.90
3312;DHT22;1668;49.648;8.570;2022-07-10T00:36:58;18.00;99.90
3312;DHT22;1668;49.648;8.570;2022-07-10T00:39:25;18.00;99.90
3312;DHT22;1668;49.648;8.570;2022-07-10T00:41:52;17.90;99.90
3312;DHT22;1668;49.648;8.570;2022-07-10T00:44:19;17.80;99.90
3312;DHT22;1668;49.648;8.570;2022-07-10T00:46:46;17.80;99.90
3312;DHT22;1668;49.648;8.570;2022-07-10T00:49:13;17.80;99.90
3312;DHT22;1668;49.648;8.570;2022-07-10T00:51:39;17.80;99.90
3312;DHT22;1668;49.648;8.570;2022-07-10T00:54:08;17.80;99.90
3312;DHT22;1668;49.648;8.570;2022-07-10T00:56:35;17.80;99.90
3312;DHT22;1668;49.648;8.570;2022-07-10T00:59:03;17.80;99.90
3312;DHT22;1668;49.648;8.570;2022-07-10T01:01:31;17.70;99.90
3312;DHT22;1668;49.648;8.570;2022-07-10T01:03:59;17.70;99.90
3312;DHT22;1668;49.648;8.570;2022-07-10T01:06:25;17.70;99.90
3312;DHT22;1668;49.648;8.570;2022-07-10T01:08:53;17.70;99.90
3312;DHT22;1668;49.648;8.570;2022-07-10T01:11:22;17.60;99.90
3312;DHT22;1668;49.648;8.570;2022-07-10T01:13:49;17.50;99.90
3312;DHT22;1668;49.648;8.570;2022-07-10T01:16:16;17.40;99.90
3312;DHT22;1668;49.648;8.570;2022-07-10T01:18:43;17.40;99.90
3312;DHT22;1668;49.648;8.570;2022-07-10T01:21:25;17.40;99.90
3312;DHT22;1668;49.648;8.570;2022-07-10T01:23:53;17.30;99.90
3312;DHT22;1668;49.648;8.570;2022-07-10T01:26:20;17.30;99.90
3312;DHT22;1668;49.648;8.570;2022-07-10T01:28:50;17.30;99.90
3312;DHT22;1668;49.648;8.570;2022-07-10T01:31:17;17.30;99.90
3312;DHT22;1668;49.648;8.570;2022-07-10T01:33:44;17.30;99.90
3312;DHT22;1668;49.648;8.570;2022-07-10T01:36:11;17.30;99.90
3312;DHT22;1668;49.648;8.570;2022-07-10T01:38:40;17.30;99.90
3312;DHT22;1668;49.648;8.570;2022-07-10T01:41:07;17.30;99.90
3312;DHT22;1668;49.648;8.570;2022-07-10T01:43:34;17.30;99.90
3312;DHT22;1668;49.648;8.570;2022-07-10T01:46:02;17.30;99.90
3312;DHT22;1668;49.648;8.570;2022-07-10T01:48:29;17.30;99.90
3312;DHT22;1668;49.648;8.570;2022-07-10T01:50:57;17.30;99.90
3312;DHT22;1668;49.648;8.570;2022-07-10T01:53:23;17.30;99.90
3312;DHT22;1668;49.648;8.570;2022-07-10T01:55:52;17.20;99.90
3312;DHT22;1668;49.648;8.570;2022-07-10T01:58:19;17.20;99.90
3312;DHT22;1668;49.648;8.570;2022-07-10T02:00:45;17.20;99.90
3312;DHT22;1668;49.648;8.570;2022-07-10T02:03:12;17.20;99.90
3312;DHT22;1668;49.648;8.570;2022-07-10T02:05:57;17.10;99.90
3312;DHT22;1668;49.648;8.570;2022-07-10T02:08:24;17.00;99.90
3312;DHT22;1668;49.648;8.570;2022-07-10T02:10:52;16.90;99.90
3312;DHT22;1668;49.648;8.570;2022-07-10T02:13:19;16.80;99.90
3312;DHT22;1668;49.648;8.570;2022-07-10T02:15:46;16.80;99.90
3312;DHT22;1668;49.648;8.570;2022-07-10T02:18:13;16.70;99.90
3312;DHT22;1668;49.648;8.570;2022-07-10T02:20:40;16.70;99.90
3312;DHT22;1668;49.648;8.570;2022-07-10T02:23:07;16.70;99.90
3312;DHT22;1668;49.648;8.570;2022-07-10T02:25:34;16.70;99.90
3312;DHT22;1668;49.648;8.570;2022-07-10T02:28:03;16.70;99.90
3312;DHT22;1668;49.648;8.570;2022-07-10T02:30:30;16.60;99.90
3312;DHT22;1668;49.648;8.570;2022-07-10T02:32:57;16.60;99.90
3312;DHT22;1668;49.648;8.570;2022-07-10T02:35:24;16.60;99.90
3312;DHT22;1668;49.648;8.570;2022-07-10T02:37:51;16.60;99.90
3312;DHT22;1668;49.648;8.570;2022-07-10T02:40:18;16.60;99.90
3312;DHT22;1668;49.648;8.570;2022-07-10T02:42:45;16.60;99.90
3312;DHT22;1668;49.648;8.570;2022-07-10T02:45:13;16.60;99.90
3312;DHT22;1668;49.648;8.570;2022-07-10T02:47:40;16.60;99.90
3312;DHT22;1668;49.648;8.570;2022-07-10T02:50:08;16.60;99.90
3312;DHT22;1668;49.648;8.570;2022-07-10T02:52:35;16.60;99.90
3312;DHT22;1668;49.648;8.570;2022-07-10T02:55:02;16.60;99.90
3312;DHT22;1668;49.648;8.570;2022-07-10T02:57:29;16.70;99.90
3312;DHT22;1668;49.648;8.570;2022-07-10T02:59:56;16.60;99.90
3312;DHT22;1668;49.648;8.570;2022-07-10T03:02:24;16.70;99.90
3312;DHT22;1668;49.648;8.570;2022-07-10T03:04:52;16.60;99.90
3312;DHT22;1668;49.648;8.570;2022-07-10T03:07:19;16.70;99.90
3312;DHT22;1668;49.648;8.570;2022-07-10T03:09:46;16.70;99.90
3312;DHT22;1668;49.648;8.570;2022-07-10T03:12:12;16.70;99.90
3312;DHT22;1668;49.648;8.570;2022-07-10T03:14:39;16.70;99.90
3312;DHT22;1668;49.648;8.570;2022-07-10T03:17:06;16.70;99.90
3312;DHT22;1668;49.648;8.570;2022-07-10T03:19:34;16.60;99.90
3312;DHT22;1668;49.648;8.570;2022-07-10T03:22:01;16.60;99.90
3312;DHT22;1668;49.648;8.570;2022-07-10T03:24:28;16.50;99.90
3312;DHT22;1668;49.648;8.570;2022-07-10T03:26:55;16.60;99.90
3312;DHT22;1668;49.648;8.570;2022-07-10T03:29:22;16.60;99.90
3312;DHT22;1668;49.648;8.570;2022-07-10T03:31:49;16.60;99.90
3312;DHT22;1668;49.648;8.570;2022-07-10T03:34:16;16.60;99.90
3312;DHT22;1668;49.648;8.570;2022-07-10T03:36:44;16.60;99.90
3312;DHT22;1668;49.648;8.570;2022-07-10T03:39:11;16.60;99.90
3312;DHT22;1668;49.648;8.570;2022-07-10T03:41:38;16.60;99.90
3312;DHT22;1668;49.648;8.570;2022-07-10T03:44:05;16.60;99.90
3312;DHT22;1668;49.648;8.570;2022-07-10T03:46:32;16.50;99.90
3312;DHT22;1668;49.648;8.570;2022-07-10T03:48:59;16.40;99.90
3312;DHT22;1668;49.648;8.570;2022-07-10T03:51:26;16.40;99.90
3312;DHT22;1668;49.648;8.570;2022-07-10T03:53:54;16.30;99.90
3312;DHT22;1668;49.648;8.570;2022-07-10T03:56:21;16.30;99.90
3312;DHT22;1668;49.648;8.570;2022-07-10T03:59:05;16.30;99.90
3312;DHT22;1668;49.648;8.570;2022-07-10T04:01:32;16.20;99.90
3312;DHT22;1668;49.648;8.570;2022-07-10T04:03:59;16.10;99.90
3312;DHT22;1668;49.648;8.570;2022-07-10T04:06:26;16.10;99.90
3312;DHT22;1668;49.648;8.570;2022-07-10T04:08:54;16.10;99.90
3312;DHT22;1668;49.648;8.570;2022-07-10T04:11:21;16.10;99.90
3312;DHT22;1668;49.648;8.570;2022-07-10T04:13:48;16.10;99.90
3312;DHT22;1668;49.648;8.570;2022-07-10T04:16:15;16.00;99.90
3312;DHT22;1668;49.648;8.570;2022-07-10T04:18:42;16.00;99.90
3312;DHT22;1668;49.648;8.570;2022-07-10T04:21:09;16.00;99.90
3312;DHT22;1668;49.648;8.570;2022-07-10T04:23:35;16.00;99.90
3312;DHT22;1668;49.648;8.570;2022-07-10T04:26:04;16.00;99.90
3312;DHT22;1668;49.648;8.570;2022-07-10T04:28:31;16.10;99.90
3312;DHT22;1668;49.648;8.570;2022-07-10T04:30:58;16.10;99.90
3312;DHT22;1668;49.648;8.570;2022-07-10T04:33:25;16.10;99.90
3312;DHT22;1668;49.648;8.570;2022-07-10T04:35:52;16.00;99.90
3312;DHT22;1668;49.648;8.570;2022-07-10T04:38:19;16.00;99.90
3312;DHT22;1668;49.648;8.570;2022-07-10T04:40:46;15.90;99.90
3312;DHT22;1668;49.648;8.570;2022-07-10T04:43:14;15.90;99.90
3312;DHT22;1668;49.648;8.570;2022-07-10T04:45:41;15.90;99.90
3312;DHT22;1668;49.648;8.570;2022-07-10T04:48:08;15.80;99.90
3312;DHT22;1668;49.648;8.570;2022-07-10T04:50:35;15.80;99.90
3312;DHT22;1668;49.648;8.570;2022-07-10T04:53:02;15.80;99.90
3312;DHT22;1668;49.648;8.570;2022-07-10T04:55:30;15.80;99.90
3312;DHT22;1668;49.648;8.570;2022-07-10T04:57:58;15.80;99.90
3312;DHT22;1668;49.648;8.570;2022-07-10T05:00:26;15.80;99.90
3312;DHT22;1668;49.648;8.570;2022-07-10T05:02:53;15.80;99.90
3312;DHT22;1668;49.648;8.570;2022-07-10T05:05:20;15.80;99.90
3312;DHT22;1668;49.648;8.570;2022-07-10T05:07:47;15.80;99.90
3312;DHT22;1668;49.648;8.570;2022-07-10T05:10:14;15.80;99.90
3312;DHT22;1668;49.648;8.570;2022-07-10T05:12:41;15.70;99.90
3312;DHT22;1668;49.648;8.570;2022-07-10T05:15:08;15.70;99.90
3312;DHT22;1668;49.648;8.570;2022-07-10T05:17:37;15.70;99.90
3312;DHT22;1668;49.648;8.570;2022-07-10T05:20:05;15.70;99.90
3312;DHT22;1668;49.648;8.570;2022-07-10T05:22:32;15.70;99.90
3312;DHT22;1668;49.648;8.570;2022-07-10T05:24:58;15.80;99.90
3312;DHT22;1668;49.648;8.570;2022-07-10T05:27:26;15.80;99.90
3312;DHT22;1668;49.648;8.570;2022-07-10T05:29:53;15.90;99.90
3312;DHT22;1668;49.648;8.570;2022-07-10T05:32:20;15.90;99.90
3312;DHT22;1668;49.648;8.570;2022-07-10T05:34:48;16.00;99.90
3312;DHT22;1668;49.648;8.570;2022-07-10T05:37:15;16.00;99.90
3312;DHT22;1668;49.648;8.570;2022-07-10T05:39:42;15.90;99.90
3312;DHT22;1668;49.648;8.570;2022-07-10T05:42:09;16.00;99.90
3312;DHT22;1668;49.648;8.570;2022-07-10T05:44:36;16.00;99.90
3312;DHT22;1668;49.648;8.570;2022-07-10T05:47:03;15.90;99.90
3312;DHT22;1668;49.648;8.570;2022-07-10T05:49:30;15.80;99.90
3312;DHT22;1668;49.648;8.570;2022-07-10T05:51:59;15.80;99.90
3312;DHT22;1668;49.648;8.570;2022-07-10T05:54:26;15.80;99.90
3312;DHT22;1668;49.648;8.570;2022-07-10T05:56:53;15.80;99.90
3312;DHT22;1668;49.648;8.570;2022-07-10T05:59:20;15.80;99.90
3312;DHT22;1668;49.648;8.570;2022-07-10T06:01:47;15.80;99.90
3312;DHT22;1668;49.648;8.570;2022-07-10T06:04:14;15.90;99.90
3312;DHT22;1668;49.648;8.570;2022-07-10T06:06:41;15.90;99.90
3312;DHT22;1668;49.648;8.570;2022-07-10T06:09:09;16.00;99.90
3312;DHT22;1668;49.648;8.570;2022-07-10T06:11:36;16.00;99.90
3312;DHT22;1668;49.648;8.570;2022-07-10T06:14:03;16.00;99.90
3312;DHT22;1668;49.648;8.570;2022-07-10T06:16:30;16.00;99.90
3312;DHT22;1668;49.648;8.570;2022-07-10T06:18:57;16.10;99.90
3312;DHT22;1668;49.648;8.570;2022-07-10T06:21:24;16.10;99.90
3312;DHT22;1668;49.648;8.570;2022-07-10T06:23:51;16.20;99.90
3312;DHT22;1668;49.648;8.570;2022-07-10T06:26:19;16.30;99.90
3312;DHT22;1668;49.648;8.570;2022-07-10T06:28:46;16.30;99.90
3312;DHT22;1668;49.648;8.570;2022-07-10T06:31:13;16.40;99.90
3312;DHT22;1668;49.648;8.570;2022-07-10T06:33:40;16.40;99.90
3312;DHT22;1668;49.648;8.570;2022-07-10T06:36:07;16.40;99.90
3312;DHT22;1668;49.648;8.570;2022-07-10T06:38:34;16.40;99.90
3312;DHT22;1668;49.648;8.570;2022-07-10T06:41:01;16.50;99.90
3312;DHT22;1668;49.648;8.570;2022-07-10T06:43:29;16.50;99.90
3312;DHT22;1668;49.648;8.570;2022-07-10T06:45:56;16.60;99.90
3312;DHT22;1668;49.648;8.570;2022-07-10T06:48:24;16.70;99.90
3312;DHT22;1668;49.648;8.570;2022-07-10T06:50:52;16.70;99.70
3312;DHT22;1668;49.648;8.570;2022-07-10T06:53:19;16.70;98.20
3312;DHT22;1668;49.648;8.570;2022-07-10T06:55:49;16.70;97.00
3312;DHT22;1668;49.648;8.570;2022-07-10T06:58:16;16.70;97.50
3312;DHT22;1668;49.648;8.570;2022-07-10T07:00:44;16.70;95.90
3312;DHT22;1668;49.648;8.570;2022-07-10T07:03:11;16.80;96.10
3312;DHT22;1668;49.648;8.570;2022-07-10T07:05:38;16.80;94.20
3312;DHT22;1668;49.648;8.570;2022-07-10T07:08:05;16.90;93.70
3312;DHT22;1668;49.648;8.570;2022-07-10T07:10:32;16.90;93.80
3312;DHT22;1668;49.648;8.570;2022-07-10T07:12:59;17.00;93.80
3312;DHT22;1668;49.648;8.570;2022-07-10T07:15:28;17.00;94.30
3312;DHT22;1668;49.648;8.570;2022-07-10T07:17:56;17.20;93.20
3312;DHT22;1668;49.648;8.570;2022-07-10T07:20:33;17.20;93.20
3312;DHT22;1668;49.648;8.570;2022-07-10T07:23:18;17.30;92.90
3312;DHT22;1668;49.648;8.570;2022-07-10T07:25:45;17.40;92.70
3312;DHT22;1668;49.648;8.570;2022-07-10T07:28:13;17.40;91.90
3312;DHT22;1668;49.648;8.570;2022-07-10T07:30:43;17.40;93.10
3312;DHT22;1668;49.648;8.570;2022-07-10T07:33:11;17.50;91.60
3312;DHT22;1668;49.648;8.570;2022-07-10T07:35:38;17.50;91.50
3312;DHT22;1668;49.648;8.570;2022-07-10T07:38:05;17.40;90.90
3312;DHT22;1668;49.648;8.570;2022-07-10T07:40:33;17.50;91.00
3312;DHT22;1668;49.648;8.570;2022-07-10T07:43:02;17.50;91.20
3312;DHT22;1668;49.648;8.570;2022-07-10T07:45:30;17.60;91.00
3312;DHT22;1668;49.648;8.570;2022-07-10T07:47:58;17.70;90.80
3312;DHT22;1668;49.648;8.570;2022-07-10T07:50:30;17.70;91.80
3312;DHT22;1668;49.648;8.570;2022-07-10T07:52:58;17.70;90.50
3312;DHT22;1668;49.648;8.570;2022-07-10T07:55:25;17.70;90.80
3312;DHT22;1668;49.648;8.570;2022-07-10T07:57:53;17.60;90.50
3312;DHT22;1668;49.648;8.570;2022-07-10T08:00:21;17.60;90.20
3312;DHT22;1668;49.648;8.570;2022-07-10T08:02:49;17.60;90.00
3312;DHT22;1668;49.648;8.570;2022-07-10T08:05:16;17.70;90.30
3312;DHT22;1668;49.648;8.570;2022-07-10T08:07:47;17.70;90.60
3312;DHT22;1668;49.648;8.570;2022-07-10T08:10:15;17.70;89.90
3312;DHT22;1668;49.648;8.570;2022-07-10T08:12:43;17.70;89.50
3312;DHT22;1668;49.648;8.570;2022-07-10T08:15:12;17.70;90.20
3312;DHT22;1668;49.648;8.570;2022-07-10T08:17:39;17.70;89.30
3312;DHT22;1668;49.648;8.570;2022-07-10T08:20:09;17.70;89.00
3312;DHT22;1668;49.648;8.570;2022-07-10T08:22:37;17.70;89.30
3312;DHT22;1668;49.648;8.570;2022-07-10T08:25:07;17.70;87.80
3312;DHT22;1668;49.648;8.570;2022-07-10T08:27:34;17.70;88.10
3312;DHT22;1668;49.648;8.570;2022-07-10T08:30:01;17.70;88.60
3312;DHT22;1668;49.648;8.570;2022-07-10T08:32:28;17.80;86.40
3312;DHT22;1668;49.648;8.570;2022-07-10T08:34:55;17.70;87.40
3312;DHT22;1668;49.648;8.570;2022-07-10T08:37:22;17.80;85.50
3312;DHT22;1668;49.648;8.570;2022-07-10T08:39:49;17.70;84.90
3312;DHT22;1668;49.648;8.570;2022-07-10T08:42:18;17.80;85.20
3312;DHT22;1668;49.648;8.570;2022-07-10T08:44:45;17.70;85.50
3312;DHT22;1668;49.648;8.570;2022-07-10T08:47:13;17.70;85.20
3312;DHT22;1668;49.648;8.570;2022-07-10T08:49:46;17.80;85.30
3312;DHT22;1668;49.648;8.570;2022-07-10T08:52:23;17.90;84.90
3312;DHT22;1668;49.648;8.570;2022-07-10T08:54:51;18.10;85.40
3312;DHT22;1668;49.648;8.570;2022-07-10T08:57:20;18.20;84.90
3312;DHT22;1668;49.648;8.570;2022-07-10T08:59:49;18.30;84.20
3312;DHT22;1668;49.648;8.570;2022-07-10T09:02:16;18.40;84.10
3312;DHT22;1668;49.648;8.570;2022-07-10T09:04:43;18.40;83.10
3312;DHT22;1668;49.648;8.570;2022-07-10T09:07:10;18.40;83.10
3312;DHT22;1668;49.648;8.570;2022-07-10T09:09:51;18.30;81.90
3312;DHT22;1668;49.648;8.570;2022-07-10T09:12:20;18.30;82.20
3312;DHT22;1668;49.648;8.570;2022-07-10T09:14:47;18.30;82.40
3312;DHT22;1668;49.648;8.570;2022-07-10T09:17:14;18.30;82.10
3312;DHT22;1668;49.648;8.570;2022-07-10T09:19:42;18.30;80.80
3312;DHT22;1668;49.648;8.570;2022-07-10T09:22:11;18.40;81.70
3312;DHT22;1668;49.648;8.570;2022-07-10T09:24:40;18.60;81.60
3312;DHT22;1668;49.648;8.570;2022-07-10T09:27:08;18.60;81.20
3312;DHT22;1668;49.648;8.570;2022-07-10T09:29:47;18.60;81.30
3312;DHT22;1668;49.648;8.570;2022-07-10T09:32:15;18.60;81.60
3312;DHT22;1668;49.648;8.570;2022-07-10T09:34:43;18.70;80.40
3312;DHT22;1668;49.648;8.570;2022-07-10T09:37:21;18.80;81.00
3312;DHT22;1668;49.648;8.570;2022-07-10T09:39:52;18.90;81.70
3312;DHT22;1668;49.648;8.570;2022-07-10T09:42:28;18.90;80.60
3312;DHT22;1668;49.648;8.570;2022-07-10T09:45:19;18.90;81.90
3312;DHT22;1668;49.648;8.570;2022-07-10T09:47:57;19.10;80.10
3312;DHT22;1668;49.648;8.570;2022-07-10T09:50:28;19.20;79.50
3312;DHT22;1668;49.648;8.570;2022-07-10T09:52:56;19.50;79.80
3312;DHT22;1668;49.648;8.570;2022-07-10T09:55:26;19.60;79.00
3312;DHT22;1668;49.648;8.570;2022-07-10T09:57:56;19.60;82.10
3312;DHT22;1668;49.648;8.570;2022-07-10T10:00:26;19.50;77.70
3312;DHT22;1668;49.648;8.570;2022-07-10T10:02:58;19.60;78.30
3312;DHT22;1668;49.648;8.570;2022-07-10T10:05:36;19.70;76.70
3312;DHT22;1668;49.648;8.570;2022-07-10T10:08:10;19.60;76.40
3312;DHT22;1668;49.648;8.570;2022-07-10T10:10:42;19.50;78.30
3312;DHT22;1668;49.648;8.570;2022-07-10T10:13:11;19.50;78.20
3312;DHT22;1668;49.648;8.570;2022-07-10T10:15:40;19.60;78.40
3312;DHT22;1668;49.648;8.570;2022-07-10T10:18:10;19.70;75.70
3312;DHT22;1668;49.648;8.570;2022-07-10T10:20:40;19.60;77.10
3312;DHT22;1668;49.648;8.570;2022-07-10T10:23:12;19.80;77.00
3312;DHT22;1668;49.648;8.570;2022-07-10T10:25:39;19.90;76.30
3312;DHT22;1668;49.648;8.570;2022-07-10T10:28:09;19.90;74.10
3312;DHT22;1668;49.648;8.570;2022-07-10T10:30:39;19.90;75.70
3312;DHT22;1668;49.648;8.570;2022-07-10T10:33:45;20.10;75.90
3312;DHT22;1668;49.648;8.570;2022-07-10T10:36:15;20.20;73.80
3312;DHT22;1668;49.648;8.570;2022-07-10T10:39:08;20.10;74.40
3312;DHT22;1668;49.648;8.570;2022-07-10T10:41:38;20.10;74.00
3312;DHT22;1668;49.648;8.570;2022-07-10T10:44:38;20.20;73.80
3312;DHT22;1668;49.648;8.570;2022-07-10T10:47:06;20.20;74.40
3312;DHT22;1668;49.648;8.570;2022-07-10T10:49:53;20.20;73.60
3312;DHT22;1668;49.648;8.570;2022-07-10T10:52:22;20.20;75.90
3312;DHT22;1668;49.648;8.570;2022-07-10T10:55:05;20.20;73.50
3312;DHT22;1668;49.648;8.570;2022-07-10T10:57:44;20.30;75.10
3312;DHT22;1668;49.648;8.570;2022-07-10T11:00:34;20.50;76.10
3312;DHT22;1668;49.648;8.570;2022-07-10T11:03:26;20.50;73.50
3312;DHT22;1668;49.648;8.570;2022-07-10T11:05:53;20.50;73.30
3312;DHT22;1668;49.648;8.570;2022-07-10T11:08:40;20.50;73.40
3312;DHT22;1668;49.648;8.570;2022-07-10T11:11:38;20.50;74.20
3312;DHT22;1668;49.648;8.570;2022-07-10T11:14:09;20.60;72.00
3312;DHT22;1668;49.648;8.570;2022-07-10T11:16:45;20.60;72.50
3312;DHT22;1668;49.648;8.570;2022-07-10T11:19:19;20.60;72.50
3312;DHT22;1668;49.648;8.570;2022-07-10T11:21:51;20.60;73.80
3312;DHT22;1668;49.648;8.570;2022-07-10T11:24:40;20.60;74.50
3312;DHT22;1668;49.648;8.570;2022-07-10T11:27:36;20.60;76.70
3312;DHT22;1668;49.648;8.570;2022-07-10T11:30:08;20.70;74.00
3312;DHT22;1668;49.648;8.570;2022-07-10T11:32:36;20.70;73.80
3312;DHT22;1668;49.648;8.570;2022-07-10T11:35:06;20.80;73.40
3312;DHT22;1668;49.648;8.570;2022-07-10T11:37:33;20.80;73.60
3312;DHT22;1668;49.648;8.570;2022-07-10T11:40:10;20.90;72.90
3312;DHT22;1668;49.648;8.570;2022-07-10T11:42:51;20.80;72.60
3312;DHT22;1668;49.648;8.570;2022-07-10T11:45:26;20.90;72.40
3312;DHT22;1668;49.648;8.570;2022-07-10T11:47:53;20.80;73.00
3312;DHT22;1668;49.648;8.570;2022-07-10T11:50:20;20.80;72.50
3312;DHT22;1668;49.648;8.570;2022-07-10T11:52:47;20.60;73.60
3312;DHT22;1668;49.648;8.570;2022-07-10T11:55:16;20.80;73.90
3312;DHT22;1668;49.648;8.570;2022-07-10T11:57:43;21.00;72.70
3312;DHT22;1668;49.648;8.570;2022-07-10T12:00:23;21.10;73.00
3312;DHT22;1668;49.648;8.570;2022-07-10T12:02:50;21.00;73.00
3312;DHT22;1668;49.648;8.570;2022-07-10T12:05:32;21.00;73.20
3312;DHT22;1668;49.648;8.570;2022-07-10T12:08:00;21.20;72.80
3312;DHT22;1668;49.648;8.570;2022-07-10T12:10:28;21.40;72.40
3312;DHT22;1668;49.648;8.570;2022-07-10T12:13:06;21.50;71.50
3312;DHT22;1668;49.648;8.570;2022-07-10T12:15:37;21.40;72.20
3312;DHT22;1668;49.648;8.570;2022-07-10T12:18:05;21.30;71.00
3312;DHT22;1668;49.648;8.570;2022-07-10T12:20:33;21.40;71.70
3312;DHT22;1668;49.648;8.570;2022-07-10T12:23:01;21.50;71.40
3312;DHT22;1668;49.648;8.570;2022-07-10T12:25:28;21.70;71.30
3312;DHT22;1668;49.648;8.570;2022-07-10T12:27:55;21.80;71.40
3312;DHT22;1668;49.648;8.570;2022-07-10T12:30:37;22.00;69.80
3312;DHT22;1668;49.648;8.570;2022-07-10T12:33:08;22.00;70.80
3312;DHT22;1668;49.648;8.570;2022-07-10T12:35:47;21.90;70.30
3312;DHT22;1668;49.648;8.570;2022-07-10T12:38:15;21.80;70.90
3312;DHT22;1668;49.648;8.570;2022-07-10T12:40:43;21.90;71.10
3312;DHT22;1668;49.648;8.570;2022-07-10T12:43:10;22.20;71.90
3312;DHT22;1668;49.648;8.570;2022-07-10T12:45:39;22.30;72.10
3312;DHT22;1668;49.648;8.570;2022-07-10T12:48:06;22.60;70.90
3312;DHT22;1668;49.648;8.570;2022-07-10T12:50:33;22.70;69.30
3312;DHT22;1668;49.648;8.570;2022-07-10T12:53:08;22.60;68.20
3312;DHT22;1668;49.648;8.570;2022-07-10T12:55:38;22.60;68.60
3312;DHT22;1668;49.648;8.570;2022-07-10T12:58:07;22.70;69.70
3312;DHT22;1668;49.648;8.570;2022-07-10T13:00:45;22.80;69.00
3312;DHT22;1668;49.648;8.570;2022-07-10T13:03:18;22.80;68.60
3312;DHT22;1668;49.648;8.570;2022-07-10T13:05:49;22.70;68.60
3312;DHT22;1668;49.648;8.570;2022-07-10T13:08:18;22.70;69.70
3312;DHT22;1668;49.648;8.570;2022-07-10T13:10:48;22.70;68.90
3312;DHT22;1668;49.648;8.570;2022-07-10T13:13:16;22.80;68.40
3312;DHT22;1668;49.648;8.570;2022-07-10T13:15:44;22.70;70.10
3312;DHT22;1668;49.648;8.570;2022-07-10T13:18:16;22.70;69.20
3312;DHT22;1668;49.648;8.570;2022-07-10T13:20:44;22.80;71.70
3312;DHT22;1668;49.648;8.570;2022-07-10T13:23:11;22.90;68.40
3312;DHT22;1668;49.648;8.570;2022-07-10T13:25:38;22.80;68.30
3312;DHT22;1668;49.648;8.570;2022-07-10T13:28:05;22.80;67.80
3312;DHT22;1668;49.648;8.570;2022-07-10T13:30:32;22.80;68.70
3312;DHT22;1668;49.648;8.570;2022-07-10T13:33:01;22.80;67.10
3312;DHT22;1668;49.648;8.570;2022-07-10T13:35:28;22.90;68.50
3312;DHT22;1668;49.648;8.570;2022-07-10T13:37:55;23.00;69.00
3312;DHT22;1668;49.648;8.570;2022-07-10T13:40:25;22.90;68.20
3312;DHT22;1668;49.648;8.570;2022-07-10T13:42:52;23.00;68.20
3312;DHT22;1668;49.648;8.570;2022-07-10T13:45:21;23.10;66.90
3312;DHT22;1668;49.648;8.570;2022-07-10T13:47:48;23.00;66.40
3312;DHT22;1668;49.648;8.570;2022-07-10T13:50:17;22.90;68.90
3312;DHT22;1668;49.648;8.570;2022-07-10T13:52:44;22.60;67.50
3312;DHT22;1668;49.648;8.570;2022-07-10T13:55:11;22.50;68.60
3312;DHT22;1668;49.648;8.570;2022-07-10T13:57:39;22.50;67.50
3312;DHT22;1668;49.648;8.570;2022-07-10T14:00:07;22.60;68.40
3312;DHT22;1668;49.648;8.570;2022-07-10T14:02:35;22.50;67.80
3312;DHT22;1668;49.648;8.570;2022-07-10T14:05:02;22.50;68.80
3312;DHT22;1668;49.648;8.570;2022-07-10T14:07:31;22.60;69.30
3312;DHT22;1668;49.648;8.570;2022-07-10T14:09:58;22.70;68.50
3312;DHT22;1668;49.648;8.570;2022-07-10T14:12:27;22.70;69.70
3312;DHT22;1668;49.648;8.570;2022-07-10T14:14:54;22.70;68.50
3312;DHT22;1668;49.648;8.570;2022-07-10T14:17:22;22.60;68.20
3312;DHT22;1668;49.648;8.570;2022-07-10T14:19:49;22.50;71.30
3312;DHT22;1668;49.648;8.570;2022-07-10T14:22:16;22.50;69.70
3312;DHT22;1668;49.648;8.570;2022-07-10T14:24:45;22.60;69.00
3312;DHT22;1668;49.648;8.570;2022-07-10T14:27:12;22.60;69.70
3312;DHT22;1668;49.648;8.570;2022-07-10T14:29:40;22.60;68.60
3312;DHT22;1668;49.648;8.570;2022-07-10T14:32:07;22.60;68.50
3312;DHT22;1668;49.648;8.570;2022-07-10T14:34:34;22.60;69.10
3312;DHT22;1668;49.648;8.570;2022-07-10T14:37:02;22.70;69.80
3312;DHT22;1668;49.648;8.570;2022-07-10T14:39:29;22.80;70.10
3312;DHT22;1668;49.648;8.570;2022-07-10T14:41:58;22.60;69.90
3312;DHT22;1668;49.648;8.570;2022-07-10T14:44:26;22.70;70.20
3312;DHT22;1668;49.648;8.570;2022-07-10T14:46:53;22.80;69.70
3312;DHT22;1668;49.648;8.570;2022-07-10T14:49:20;22.70;70.40
3312;DHT22;1668;49.648;8.570;2022-07-10T14:51:48;22.80;70.30
3312;DHT22;1668;49.648;8.570;2022-07-10T14:54:16;22.70;70.40
3312;DHT22;1668;49.648;8.570;2022-07-10T14:56:44;22.70;70.20
3312;DHT22;1668;49.648;8.570;2022-07-10T14:59:13;22.70;69.00
3312;DHT22;1668;49.648;8.570;2022-07-10T15:01:41;22.60;68.50
3312;DHT22;1668;49.648;8.570;2022-07-10T15:04:11;22.50;69.40
3312;DHT22;1668;49.648;8.570;2022-07-10T15:06:39;22.50;69.60
3312;DHT22;1668;49.648;8.570;2022-07-10T15:09:06;22.30;69.30
3312;DHT22;1668;49.648;8.570;2022-07-10T15:11:33;22.40;69.40
3312;DHT22;1668;49.648;8.570;2022-07-10T15:14:01;22.30;69.40
3312;DHT22;1668;49.648;8.570;2022-07-10T15:16:32;22.20;70.10
3312;DHT22;1668;49.648;8.570;2022-07-10T15:18:59;22.30;70.00
3312;DHT22;1668;49.648;8.570;2022-07-10T15:21:27;22.40;70.40
3312;DHT22;1668;49.648;8.570;2022-07-10T15:23:55;22.30;70.70
3312;DHT22;1668;49.648;8.570;2022-07-10T15:26:22;22.50;70.60
3312;DHT22;1668;49.648;8.570;2022-07-10T15:28:49;22.60;70.70
3312;DHT22;1668;49.648;8.570;2022-07-10T15:31:16;22.50;71.00
3312;DHT22;1668;49.648;8.570;2022-07-10T15:33:44;22.50;72.00
3312;DHT22;1668;49.648;8.570;2022-07-10T15:36:11;22.40;71.80
3312;DHT22;1668;49.648;8.570;2022-07-10T15:38:39;22.30;72.60
3312;DHT22;1668;49.648;8.570;2022-07-10T15:41:06;22.20;72.30
3312;DHT22;1668;49.648;8.570;2022-07-10T15:43:33;22.10;72.70
3312;DHT22;1668;49.648;8.570;2022-07-10T15:46:00;22.00;72.90
3312;DHT22;1668;49.648;8.570;2022-07-10T15:48:27;22.00;73.60
3312;DHT22;1668;49.648;8.570;2022-07-10T15:50:55;22.00;73.70
3312;DHT22;1668;49.648;8.570;2022-07-10T15:53:22;21.90;73.70
3312;DHT22;1668;49.648;8.570;2022-07-10T15:55:49;21.90;74.20
3312;DHT22;1668;49.648;8.570;2022-07-10T15:58:16;22.00;75.10
3312;DHT22;1668;49.648;8.570;2022-07-10T16:00:43;22.00;74.40
3312;DHT22;1668;49.648;8.570;2022-07-10T16:03:10;22.00;75.00
3312;DHT22;1668;49.648;8.570;2022-07-10T16:05:38;22.00;75.60
3312;DHT22;1668;49.648;8.570;2022-07-10T16:08:06;22.00;76.30
3312;DHT22;1668;49.648;8.570;2022-07-10T16:10:33;22.00;76.40
3312;DHT22;1668;49.648;8.570;2022-07-10T16:13:00;22.00;76.10